Terminal Aerodrome Forecast
Issued by NWS Charleston, SC

Home | Current Version | Previous Version | Text Only | Print | Product List | Glossary On
Versions: 1 2 3 4 5 6 7 8 9 10 11 12 13 14 15 16 17 18 19 20
702
FTUS42 KCHS 022335
TAFSAV
TAF
KSAV 022335Z 0300/0324 VRB02KT P6SM FEW120 SCT200
     FM031400 05008KT P6SM BKN150
     FM032230 09005KT P6SM FEW100 BKN150=

USA.gov is the U.S. government's official web portal to all federal, state and local government web resources and services.